首页
METAR-TAF:

METAR-TAF

机场 :

柏林, 德国

柏林-泰格尔奥托·利林塔尔机场

纬度: 52-34N, 经度: 013-19E, 海拔: 37米

当前天气观测

该预报发布于31分钟前的21:50 UTC
风速6节,风向西转西南
温度 7°C
湿度 81%
气压 1011 hPa
能见度10公里或以上
1500米以下无云,无积雨云

METAR: EDDT 252150Z 24006KT CAVOK 07/04 Q1011

时间: 00:21 (22:21 UTC)

预报

该预报发布于5小时和21分钟前的17:00 UTC
预报有效从25日的 18点(UTC)到 26日的 18点(UTC)
风速13节,风向西转西北,有时为23节阵风
能见度10公里或以上
散云层高于4000英尺
成为
从 25日的 18点(UTC)到 25日的 20点(UTC)
风速8节,风向西转西南
成为
从 26日的 06点(UTC)到 26日的 09点(UTC)
风速15节,风向西转西南,有时为25节阵风
几率 30% :
短暂存在
从 26日的 09点(UTC)到 26日的 17点(UTC)
多云层高于2500英尺, 积雨云.
雷暴, 雨

TAF: EDDT 251700Z 2518/2618 29013G23KT 9999 SCT040 BECMG 2518/2520 24008KT BECMG 2606/2609 25015G25KT PROB30 TEMPO 2609/2617 TSRA BKN025CB

超过4000个机场的气象观测和天气预报(METAR&TAF报告)。

可查询的气象台以黄色和红色小点在地图上表示。

将鼠标移到小点上方,可查看气象台名称。

然后点击查看天气观测和预报。

如需切换地图:点击带黑十字的绿色按钮放大地图;点击带横线的绿色按钮缩小地图;或者点击绿色箭头查看邻近地区的地图。


METAR-TAF: